Time;durP1;ratioP1;P1;durP2;ratioP2;P2;SDS_P1;SDS_P2;PMS_P1;PMS_P2;Temp;Humidity;BMP_temperature;BMP_pressure;BME280_temperature;BME280_humidity;BME280_pressure;Samples;Min_cycle;Max_cycle;Signal;HPM_P1;HPM_P2
2022/04/13 00:00:15;;;;;;;;;;;21.30;45.70;;;;;;5079290;28;19925;-43
2022/04/13 00:02:43;;;;;;;;;;;21.30;45.70;;;;;;5077219;28;19974;-43
2022/04/13 00:05:10;;;;;;;;;;;21.30;45.70;;;;;;5076738;28;19931;-45
2022/04/13 00:07:37;;;;;;;;;;;21.30;45.70;;;;;;5076582;28;19924;-43
2022/04/13 00:10:05;;;;;;;;;;;21.30;45.60;;;;;;5093960;28;19925;-43
2022/04/13 00:12:32;;;;;;;;;;;21.30;45.70;;;;;;5097073;28;20276;-44
2022/04/13 00:14:59;;;;;;;;;;;21.30;45.70;;;;;;5095957;28;20379;-44
2022/04/13 00:17:26;;;;;;;;;;;21.30;45.70;;;;;;5096609;28;19977;-44
2022/04/13 00:19:54;;;;;;;;;;;21.30;45.70;;;;;;5096943;28;19924;-43
2022/04/13 00:22:21;;;;;;;;;;;21.20;45.70;;;;;;5078400;28;19924;-43
2022/04/13 00:24:48;;;;;;;;;;;21.30;45.80;;;;;;5095657;28;19983;-44
2022/04/13 00:27:15;;;;;;;;;;;21.20;45.70;;;;;;5096770;28;19927;-43
2022/04/13 00:29:42;;;;;;;;;;;21.30;45.80;;;;;;5096045;28;20402;-43
2022/04/13 00:32:09;;;;;;;;;;;21.20;45.70;;;;;;5096688;28;20354;-43
2022/04/13 00:34:36;;;;;;;;;;;21.20;45.70;;;;;;5078556;28;19924;-43
2022/04/13 00:37:03;;;;;;;;;;;21.20;45.70;;;;;;5078343;28;19924;-45
2022/04/13 00:39:30;;;;;;;;;;;21.20;45.70;;;;;;5095316;28;19924;-43
2022/04/13 00:42:02;;;;;;;;;;;21.20;45.70;;;;;;5096497;28;19924;-43
2022/04/13 00:44:30;;;;;;;;;;;21.20;45.70;;;;;;5088067;28;19925;-48
2022/04/13 00:46:57;;;;;;;;;;;21.20;45.70;;;;;;5075778;28;19924;-45
2022/04/13 00:49:25;;;;;;;;;;;21.20;45.70;;;;;;5076118;28;19966;-43
2022/04/13 00:51:53;;;;;;;;;;;21.20;45.70;;;;;;5075979;28;19955;-44
2022/04/13 00:54:20;;;;;;;;;;;21.20;45.80;;;;;;5065247;28;20291;-44
2022/04/13 00:56:48;;;;;;;;;;;21.20;45.80;;;;;;5095951;28;19931;-44
2022/04/13 00:59:15;;;;;;;;;;;21.20;45.80;;;;;;5072386;28;20376;-46
2022/04/13 01:01:46;;;;;;;;;;;21.20;45.80;;;;;;5075874;28;19982;-43
2022/04/13 01:04:14;;;;;;;;;;;21.20;45.80;;;;;;5075504;28;19924;-45
2022/04/13 01:06:42;;;;;;;;;;;21.20;45.80;;;;;;5075420;28;19925;-43
2022/04/13 01:09:10;;;;;;;;;;;21.20;45.80;;;;;;5079258;28;19965;-49
2022/04/13 01:11:37;;;;;;;;;;;21.20;45.80;;;;;;5095966;28;19928;-43
2022/04/13 01:14:04;;;;;;;;;;;21.20;45.80;;;;;;5094827;28;19924;-43
2022/04/13 01:16:34;;;;;;;;;;;21.20;45.90;;;;;;5095528;28;19977;-43
2022/04/13 01:19:03;;;;;;;;;;;21.20;46.40;;;;;;5095778;28;19963;-44
2022/04/13 01:21:48;;;;;;;;;;;21.20;45.90;;;;;;5095325;28;19924;-43
2022/04/13 01:24:16;;;;;;;;;;;21.20;45.90;;;;;;5094449;28;19923;-43
2022/04/13 01:26:43;;;;;;;;;;;21.20;45.90;;;;;;5095507;28;19949;-43
2022/04/13 01:29:11;;;;;;;;;;;21.20;45.90;;;;;;5093474;28;19950;-48
2022/04/13 01:31:38;;;;;;;;;;;21.10;45.80;;;;;;5095237;28;19954;-44
2022/04/13 01:34:06;;;;;;;;;;;21.20;45.90;;;;;;5095434;28;19930;-43
2022/04/13 01:36:34;;;;;;;;;;;21.20;45.90;;;;;;5095047;28;19928;-44
2022/04/13 01:39:01;;;;;;;;;;;21.20;45.90;;;;;;5077144;28;19924;-43
2022/04/13 01:41:28;;;;;;;;;;;21.10;45.80;;;;;;5095365;28;19931;-44
2022/04/13 01:43:56;;;;;;;;;;;21.20;46.00;;;;;;5095020;28;20360;-44
2022/04/13 01:46:23;;;;;;;;;;;21.10;45.80;;;;;;5094417;28;19935;-43
2022/04/13 01:48:50;;;;;;;;;;;21.10;45.90;;;;;;5095170;28;20384;-46
2022/04/13 01:51:20;;;;;;;;;;;21.10;45.90;;;;;;5095058;28;19931;-46
2022/04/13 01:53:48;;;;;;;;;;;21.10;45.90;;;;;;5096297;28;20014;-43
2022/04/13 01:56:16;;;;;;;;;;;21.10;45.90;;;;;;5076250;28;19938;-46
2022/04/13 01:58:43;;;;;;;;;;;21.10;45.90;;;;;;5094694;28;19977;-45
2022/04/13 02:01:10;;;;;;;;;;;21.10;45.90;;;;;;5093833;28;19924;-44
2022/04/13 02:03:38;;;;;;;;;;;21.10;45.90;;;;;;5094956;28;19931;-43
2022/04/13 02:06:04;;;;;;;;;;;21.10;45.90;;;;;;5094799;28;19931;-46
2022/04/13 02:08:32;;;;;;;;;;;21.10;45.90;;;;;;5094537;28;19924;-45
2022/04/13 02:10:58;;;;;;;;;;;21.10;45.90;;;;;;5076012;28;19928;-44
2022/04/13 02:13:25;;;;;;;;;;;21.10;45.90;;;;;;5094766;28;19924;-43
2022/04/13 02:15:53;;;;;;;;;;;21.10;45.90;;;;;;5083222;28;19928;-45
2022/04/13 02:18:20;;;;;;;;;;;21.10;45.90;;;;;;5074423;28;19929;-44
2022/04/13 02:20:47;;;;;;;;;;;21.10;46.00;;;;;;5074275;28;20330;-49
2022/04/13 02:23:14;;;;;;;;;;;21.10;46.00;;;;;;5073858;28;19928;-44
2022/04/13 02:25:41;;;;;;;;;;;21.10;46.00;;;;;;5065884;28;19977;-44
2022/04/13 02:28:08;;;;;;;;;;;21.10;46.00;;;;;;5094192;28;20011;-46
2022/04/13 02:30:35;;;;;;;;;;;21.10;46.00;;;;;;5093834;28;20326;-45
2022/04/13 02:33:02;;;;;;;;;;;21.10;46.00;;;;;;5094446;28;20265;-45
2022/04/13 02:35:29;;;;;;;;;;;21.10;46.00;;;;;;5094325;28;19985;-44
2022/04/13 02:37:56;;;;;;;;;;;21.10;46.00;;;;;;5094353;28;19973;-45
2022/04/13 02:40:23;;;;;;;;;;;21.10;46.00;;;;;;5092471;28;19928;-43
2022/04/13 02:42:50;;;;;;;;;;;21.10;46.00;;;;;;5094330;28;19924;-43
2022/04/13 02:45:17;;;;;;;;;;;21.10;46.00;;;;;;5074736;28;19935;-47
2022/04/13 02:47:44;;;;;;;;;;;21.10;46.00;;;;;;5094214;28;20329;-45
2022/04/13 02:50:11;;;;;;;;;;;21.00;45.90;;;;;;5094189;28;20395;-47
2022/04/13 02:52:38;;;;;;;;;;;21.10;46.00;;;;;;5094070;28;19924;-44
2022/04/13 02:55:05;;;;;;;;;;;21.10;46.00;;;;;;5092976;28;19950;-45
2022/04/13 02:57:32;;;;;;;;;;;21.10;46.10;;;;;;5094147;28;19973;-45
2022/04/13 02:59:59;;;;;;;;;;;21.10;46.10;;;;;;5094354;28;19973;-47
2022/04/13 03:02:29;;;;;;;;;;;21.00;46.00;;;;;;5092957;28;19946;-47
2022/04/13 03:04:56;;;;;;;;;;;21.00;46.00;;;;;;5075939;28;19930;-43
2022/04/13 03:07:25;;;;;;;;;;;21.00;46.00;;;;;;5093665;28;19924;-43
2022/04/13 03:09:52;;;;;;;;;;;21.00;46.00;;;;;;5075651;28;20031;-46
2022/04/13 03:12:19;;;;;;;;;;;21.00;46.00;;;;;;5075779;28;20330;-45
2022/04/13 03:14:46;;;;;;;;;;;21.00;46.00;;;;;;5075863;28;19967;-45
2022/04/13 03:17:13;;;;;;;;;;;21.00;46.00;;;;;;5092976;28;19925;-43
2022/04/13 03:19:40;;;;;;;;;;;21.00;46.10;;;;;;5093648;28;20387;-45
2022/04/13 03:22:07;;;;;;;;;;;21.00;46.10;;;;;;5093355;28;20036;-43
2022/04/13 03:24:34;;;;;;;;;;;21.00;46.10;;;;;;5093576;28;20379;-43
2022/04/13 03:27:01;;;;;;;;;;;21.00;46.10;;;;;;5092593;28;20395;-43
2022/04/13 03:29:28;;;;;;;;;;;21.00;46.10;;;;;;5093474;28;19924;-43
2022/04/13 03:31:55;;;;;;;;;;;21.00;46.10;;;;;;5092890;28;19928;-43
2022/04/13 03:34:22;;;;;;;;;;;21.00;46.10;;;;;;5093741;28;19928;-43
2022/04/13 03:36:50;;;;;;;;;;;21.00;46.10;;;;;;5093442;28;20387;-42
2022/04/13 03:39:17;;;;;;;;;;;21.00;46.10;;;;;;5093737;28;19931;-43
2022/04/13 03:41:44;;;;;;;;;;;21.00;46.10;;;;;;5074245;28;19928;-44
2022/04/13 03:44:11;;;;;;;;;;;21.00;46.10;;;;;;5093716;28;20028;-43
2022/04/13 03:46:38;;;;;;;;;;;21.00;46.10;;;;;;5084181;28;19924;-43
2022/04/13 03:49:07;;;;;;;;;;;20.90;46.00;;;;;;5073460;28;19947;-43
2022/04/13 03:51:34;;;;;;;;;;;21.00;46.10;;;;;;5074473;28;19970;-42
2022/04/13 03:54:02;;;;;;;;;;;21.00;46.10;;;;;;5076832;28;19925;-45
2022/04/13 03:56:33;;;;;;;;;;;21.00;46.10;;;;;;5085657;28;19924;-43
2022/04/13 03:59:00;;;;;;;;;;;21.00;46.10;;;;;;5097080;28;19974;-43
2022/04/13 04:01:27;;;;;;;;;;;21.00;46.10;;;;;;5096647;28;19924;-43
2022/04/13 04:03:54;;;;;;;;;;;21.00;46.10;;;;;;5096920;28;20015;-43
2022/04/13 04:06:23;;;;;;;;;;;21.00;46.10;;;;;;5097617;28;19933;-43
2022/04/13 04:08:50;;;;;;;;;;;21.00;46.10;;;;;;5097160;28;19978;-43
2022/04/13 04:11:17;;;;;;;;;;;21.00;46.10;;;;;;5096229;28;19924;-43
2022/04/13 04:13:44;;;;;;;;;;;20.90;46.10;;;;;;5096785;28;19924;-43
2022/04/13 04:16:11;;;;;;;;;;;21.00;46.10;;;;;;5095803;28;19933;-43
2022/04/13 04:18:38;;;;;;;;;;;20.90;46.10;;;;;;5096974;28;19947;-43
2022/04/13 04:21:05;;;;;;;;;;;21.00;46.10;;;;;;5096519;28;20368;-43
2022/04/13 04:23:32;;;;;;;;;;;20.90;46.10;;;;;;5096525;28;19924;-45
2022/04/13 04:25:59;;;;;;;;;;;20.90;46.10;;;;;;5095490;28;20560;-42
2022/04/13 04:28:26;;;;;;;;;;;21.00;46.10;;;;;;5078787;28;19924;-43
2022/04/13 04:30:53;;;;;;;;;;;20.90;46.10;;;;;;5079329;28;19978;-43
2022/04/13 04:33:20;;;;;;;;;;;20.90;46.10;;;;;;5095551;28;19924;-43
2022/04/13 04:35:47;;;;;;;;;;;21.00;46.10;;;;;;5096283;28;19925;-43
2022/04/13 04:38:14;;;;;;;;;;;21.00;46.10;;;;;;5096281;28;20421;-43
2022/04/13 04:40:41;;;;;;;;;;;21.00;46.10;;;;;;5096576;28;19978;-43
2022/04/13 04:43:08;;;;;;;;;;;20.90;46.10;;;;;;5095287;28;20500;-43
2022/04/13 04:45:36;;;;;;;;;;;21.00;46.10;;;;;;5096168;28;19924;-43
2022/04/13 04:48:06;;;;;;;;;;;21.00;46.10;;;;;;5063094;28;19936;-43
2022/04/13 04:50:34;;;;;;;;;;;21.00;46.10;;;;;;5076045;28;19929;-43
2022/04/13 04:53:01;;;;;;;;;;;21.00;46.10;;;;;;5076079;28;20339;-43
2022/04/13 04:55:31;;;;;;;;;;;21.00;46.10;;;;;;5076046;28;19928;-45
2022/04/13 04:57:58;;;;;;;;;;;21.00;46.10;;;;;;5091409;28;20010;-44
2022/04/13 05:00:25;;;;;;;;;;;21.00;46.10;;;;;;5095872;28;20457;-43
2022/04/13 05:02:53;;;;;;;;;;;21.00;46.00;;;;;;5094510;28;19931;-51
2022/04/13 05:05:20;;;;;;;;;;;21.00;46.00;;;;;;5096074;28;19931;-51
2022/04/13 05:07:47;;;;;;;;;;;21.00;46.00;;;;;;5095612;28;19924;-50
2022/04/13 05:10:14;;;;;;;;;;;21.00;46.00;;;;;;5095916;28;20303;-43
2022/04/13 05:12:43;;;;;;;;;;;21.00;45.90;;;;;;5094666;28;20410;-44
2022/04/13 05:15:11;;;;;;;;;;;21.10;46.00;;;;;;5095572;28;20015;-45
2022/04/13 05:17:39;;;;;;;;;;;21.10;46.00;;;;;;5094883;28;20292;-46
2022/04/13 05:20:07;;;;;;;;;;;21.00;45.90;;;;;;5095766;28;19930;-46
2022/04/13 05:22:34;;;;;;;;;;;21.10;45.90;;;;;;5095070;28;19978;-46
2022/04/13 05:25:05;;;;;;;;;;;21.10;45.90;;;;;;5095604;28;20011;-47
2022/04/13 05:27:32;;;;;;;;;;;21.10;45.90;;;;;;5094244;28;19925;-45
2022/04/13 05:29:59;;;;;;;;;;;21.10;45.90;;;;;;5095525;28;19924;-43
2022/04/13 05:32:26;;;;;;;;;;;21.10;45.90;;;;;;5094384;28;19977;-43
2022/04/13 05:34:59;;;;;;;;;;;21.10;45.90;;;;;;5095418;28;20261;-43
2022/04/13 05:37:29;;;;;;;;;;;21.10;45.90;;;;;;5095406;28;19924;-43
2022/04/13 05:39:56;;;;;;;;;;;21.10;45.90;;;;;;5095302;28;19928;-43
2022/04/13 05:42:30;;;;;;;;;;;21.10;45.90;;;;;;5094431;28;19967;-44
2022/04/13 05:44:58;;;;;;;;;;;21.10;45.90;;;;;;5094967;28;19924;-43
2022/04/13 05:47:26;;;;;;;;;;;21.10;45.90;;;;;;5090611;28;19970;-43
2022/04/13 05:49:53;;;;;;;;;;;21.10;45.90;;;;;;5074573;28;20392;-47
2022/04/13 05:52:19;;;;;;;;;;;21.10;45.90;;;;;;5074695;28;19970;-46
2022/04/13 05:54:46;;;;;;;;;;;21.10;45.80;;;;;;5074795;28;19925;-43
2022/04/13 05:57:13;;;;;;;;;;;21.10;45.80;;;;;;5079127;28;19967;-43
2022/04/13 05:59:40;;;;;;;;;;;21.10;46.30;;;;;;5095004;28;19924;-43
2022/04/13 06:02:07;;;;;;;;;;;21.10;45.80;;;;;;5093991;28;19969;-46
2022/04/13 06:04:35;;;;;;;;;;;21.10;45.80;;;;;;5074129;28;20392;-44
2022/04/13 06:07:02;;;;;;;;;;;21.10;45.70;;;;;;5074150;28;19925;-47
2022/04/13 06:09:28;;;;;;;;;;;21.10;45.70;;;;;;5074104;28;19978;-46
2022/04/13 06:11:55;;;;;;;;;;;21.10;45.70;;;;;;5074539;28;20380;-47
2022/04/13 06:14:22;;;;;;;;;;;21.10;45.70;;;;;;5094020;28;19975;-45
2022/04/13 06:16:49;;;;;;;;;;;21.10;45.80;;;;;;5094117;28;19932;-49
2022/04/13 06:19:16;;;;;;;;;;;21.10;45.70;;;;;;5093407;28;19978;-48
2022/04/13 06:21:43;;;;;;;;;;;21.10;45.80;;;;;;5093877;28;19978;-45
2022/04/13 06:24:10;;;;;;;;;;;21.20;45.80;;;;;;5094162;28;19928;-46
2022/04/13 06:26:37;;;;;;;;;;;21.10;45.70;;;;;;5094486;28;20336;-51
2022/04/13 06:29:04;;;;;;;;;;;21.10;45.70;;;;;;5093143;28;19924;-50
2022/04/13 06:31:31;;;;;;;;;;;21.10;45.80;;;;;;5094489;28;20337;-49
2022/04/13 06:33:58;;;;;;;;;;;21.10;45.80;;;;;;5080870;28;20326;-49
2022/04/13 06:36:25;;;;;;;;;;;21.10;45.80;;;;;;5073864;28;19978;-49
2022/04/13 06:38:52;;;;;;;;;;;21.10;45.80;;;;;;5056101;28;19970;-46
2022/04/13 06:41:21;;;;;;;;;;;21.10;45.80;;;;;;5056123;28;19925;-49
2022/04/13 06:43:48;;;;;;;;;;;21.10;45.90;;;;;;5087511;28;19924;-46
2022/04/13 06:46:15;;;;;;;;;;;21.10;45.90;;;;;;5094291;28;19924;-45
2022/04/13 06:48:42;;;;;;;;;;;21.10;45.90;;;;;;5093578;28;19950;-47
2022/04/13 06:51:09;;;;;;;;;;;21.10;45.90;;;;;;5094206;28;19924;-46
2022/04/13 06:53:36;;;;;;;;;;;21.10;45.90;;;;;;5093806;28;20429;-47
2022/04/13 06:56:03;;;;;;;;;;;21.10;45.90;;;;;;5094401;28;19989;-45
2022/04/13 06:58:30;;;;;;;;;;;21.10;45.90;;;;;;5092823;28;19928;-51
2022/04/13 07:00:57;;;;;;;;;;;21.10;45.90;;;;;;5076293;28;19958;-44
2022/04/13 07:03:25;;;;;;;;;;;21.10;46.00;;;;;;5093110;28;19928;-46
2022/04/13 07:05:53;;;;;;;;;;;21.10;45.90;;;;;;5094276;28;19924;-46
2022/04/13 07:08:20;;;;;;;;;;;21.10;45.90;;;;;;5093963;28;19977;-47
2022/04/13 07:10:47;;;;;;;;;;;21.10;45.90;;;;;;5093955;28;19924;-44
2022/04/13 07:13:16;;;;;;;;;;;21.10;46.50;;;;;;5093047;28;20295;-47
2022/04/13 07:15:44;;;;;;;;;;;21.10;45.90;;;;;;5093877;28;19928;-47
2022/04/13 07:18:11;;;;;;;;;;;21.10;45.90;;;;;;5092235;28;20004;-46
2022/04/13 07:20:38;;;;;;;;;;;21.10;45.90;;;;;;5073225;28;19924;-47
2022/04/13 07:23:05;;;;;;;;;;;21.10;45.80;;;;;;5073158;28;20380;-44
2022/04/13 07:25:33;;;;;;;;;;;21.20;45.90;;;;;;5073616;28;19924;-50
2022/04/13 07:28:00;;;;;;;;;;;21.10;45.80;;;;;;5079895;28;20325;-44
2022/04/13 07:30:27;;;;;;;;;;;21.20;45.90;;;;;;5079940;28;19924;-43
2022/04/13 07:33:01;;;;;;;;;;;21.10;45.80;;;;;;5097519;28;19924;-44
2022/04/13 07:35:30;;;;;;;;;;;21.20;45.80;;;;;;5077775;28;19931;-48
2022/04/13 07:37:57;;;;;;;;;;;21.20;45.80;;;;;;5077169;28;19924;-47
2022/04/13 07:40:24;;;;;;;;;;;21.20;45.80;;;;;;5077265;28;19928;-50
2022/04/13 07:42:51;;;;;;;;;;;21.20;45.80;;;;;;5077551;28;19970;-44
2022/04/13 07:45:18;;;;;;;;;;;21.20;45.70;;;;;;5097452;28;19931;-47
2022/04/13 07:47:46;;;;;;;;;;;21.20;45.70;;;;;;5097466;28;20273;-50
2022/04/13 07:50:13;;;;;;;;;;;21.20;45.60;;;;;;5095998;28;19993;-45
2022/04/13 07:52:41;;;;;;;;;;;21.20;45.60;;;;;;5098102;28;19925;-49
2022/04/13 07:55:09;;;;;;;;;;;21.20;45.60;;;;;;5097137;28;19928;-49
2022/04/13 07:57:37;;;;;;;;;;;21.20;45.50;;;;;;5097589;28;19924;-46
2022/04/13 08:00:06;;;;;;;;;;;21.20;45.40;;;;;;5096118;28;19932;-49
2022/04/13 08:02:35;;;;;;;;;;;21.30;45.50;;;;;;5098148;28;19962;-43
2022/04/13 08:05:02;;;;;;;;;;;21.30;45.40;;;;;;5083690;28;20269;-47
2022/04/13 08:07:29;;;;;;;;;;;21.30;45.40;;;;;;5077693;28;19925;-50
2022/04/13 08:09:57;;;;;;;;;;;21.30;45.30;;;;;;5076410;28;20426;-44
2022/04/13 08:12:26;;;;;;;;;;;21.30;45.20;;;;;;5077076;28;19928;-49
2022/04/13 08:14:53;;;;;;;;;;;21.30;45.20;;;;;;5073153;28;19924;-44
2022/04/13 08:17:20;;;;;;;;;;;21.40;45.20;;;;;;5096695;28;19932;-43
2022/04/13 08:19:47;;;;;;;;;;;21.40;45.20;;;;;;5086477;28;19963;-44
2022/04/13 08:22:16;;;;;;;;;;;21.40;45.20;;;;;;5076066;28;19929;-43
2022/04/13 08:24:43;;;;;;;;;;;21.40;45.20;;;;;;5076351;28;19924;-46
2022/04/13 08:27:11;;;;;;;;;;;21.40;45.10;;;;;;5076534;28;20245;-46
2022/04/13 08:29:39;;;;;;;;;;;21.40;45.10;;;;;;5087698;28;20358;-43
2022/04/13 08:32:07;;;;;;;;;;;21.40;45.00;;;;;;5096447;28;19977;-47
2022/04/13 08:34:34;;;;;;;;;;;21.40;45.00;;;;;;5090447;28;20334;-43
2022/04/13 08:37:01;;;;;;;;;;;21.40;45.00;;;;;;5075896;28;19925;-43
2022/04/13 08:39:27;;;;;;;;;;;21.50;45.10;;;;;;5075292;28;19986;-46
2022/04/13 08:41:57;;;;;;;;;;;21.50;45.10;;;;;;5076592;28;19928;-46
2022/04/13 08:44:36;;;;;;;;;;;21.50;45.00;;;;;;5083720;28;20444;-46
2022/04/13 08:47:06;;;;;;;;;;;21.50;45.00;;;;;;5096084;28;19931;-46
2022/04/13 08:49:34;;;;;;;;;;;21.50;45.00;;;;;;5091433;28;19924;-48
2022/04/13 08:52:05;;;;;;;;;;;21.50;45.00;;;;;;5075700;28;20376;-46
2022/04/13 08:54:36;;;;;;;;;;;21.50;44.90;;;;;;5076084;28;19924;-44
2022/04/13 08:57:05;;;;;;;;;;;21.50;44.90;;;;;;5076045;28;19924;-45
2022/04/13 08:59:57;;;;;;;;;;;21.50;44.90;;;;;;5085483;28;19924;-44
2022/04/13 09:02:27;;;;;;;;;;;21.50;44.80;;;;;;5096141;28;19928;-48
2022/04/13 09:04:56;;;;;;;;;;;21.60;44.90;;;;;;5094449;28;20273;-49
2022/04/13 09:07:26;;;;;;;;;;;21.60;44.90;;;;;;5095680;28;19970;-47
2022/04/13 09:09:53;;;;;;;;;;;21.60;44.90;;;;;;5077827;28;20375;-43
2022/04/13 09:12:20;;;;;;;;;;;21.60;44.90;;;;;;5095648;28;20014;-43
2022/04/13 09:14:47;;;;;;;;;;;21.60;44.80;;;;;;5094837;28;19967;-45
2022/04/13 09:17:14;;;;;;;;;;;21.60;44.80;;;;;;5095530;28;20441;-45
2022/04/13 09:19:43;;;;;;;;;;;21.60;44.80;;;;;;5094995;28;21000;-43
2022/04/13 09:22:10;;;;;;;;;;;21.60;44.80;;;;;;5095156;28;19973;-46
2022/04/13 09:24:37;;;;;;;;;;;21.70;44.80;;;;;;5077562;28;19926;-44
2022/04/13 09:27:04;;;;;;;;;;;21.70;44.80;;;;;;5095683;28;19993;-47
2022/04/13 09:29:32;;;;;;;;;;;21.70;44.80;;;;;;5094622;28;20033;-47
2022/04/13 09:31:59;;;;;;;;;;;21.60;44.90;;;;;;5095268;28;20368;-50
2022/04/13 09:34:26;;;;;;;;;;;21.70;44.80;;;;;;5095422;28;20383;-51
2022/04/13 09:36:54;;;;;;;;;;;21.70;44.80;;;;;;5094008;28;20284;-44
2022/04/13 09:39:22;;;;;;;;;;;21.70;44.80;;;;;;5095037;28;19931;-48
2022/04/13 09:41:50;;;;;;;;;;;21.70;44.80;;;;;;5077439;28;19950;-46
2022/04/13 09:44:20;;;;;;;;;;;21.70;44.80;;;;;;5094446;28;20034;-46
2022/04/13 09:46:47;;;;;;;;;;;21.70;44.80;;;;;;5094896;28;19931;-51
2022/04/13 09:49:16;;;;;;;;;;;21.70;44.80;;;;;;5094475;28;19978;-48
2022/04/13 09:51:46;;;;;;;;;;;21.70;44.70;;;;;;5078164;28;19924;-49
2022/04/13 09:54:14;;;;;;;;;;;21.70;44.70;;;;;;5056882;28;19924;-44
2022/04/13 09:56:46;;;;;;;;;;;21.70;44.70;;;;;;5074834;28;19956;-43
2022/04/13 09:59:24;;;;;;;;;;;21.70;44.70;;;;;;5056753;28;19925;-45
2022/04/13 10:01:51;;;;;;;;;;;21.80;44.80;;;;;;5095050;28;20049;-43
2022/04/13 10:04:31;;;;;;;;;;;21.80;44.80;;;;;;5094506;28;19924;-44
2022/04/13 10:07:28;;;;;;;;;;;21.80;44.80;;;;;;5076907;28;19968;-47
2022/04/13 10:09:55;;;;;;;;;;;21.80;44.80;;;;;;5061456;28;19925;-47
2022/04/13 10:12:22;;;;;;;;;;;21.70;44.70;;;;;;5074242;28;19924;-49
2022/04/13 10:14:49;;;;;;;;;;;21.80;44.80;;;;;;5077592;28;19924;-44
2022/04/13 10:17:16;;;;;;;;;;;21.70;44.70;;;;;;5094773;28;19931;-47
2022/04/13 10:19:51;;;;;;;;;;;21.80;44.80;;;;;;5094418;28;19924;-44
2022/04/13 10:22:18;;;;;;;;;;;21.80;44.80;;;;;;5057767;28;19932;-44
2022/04/13 10:24:45;;;;;;;;;;;21.80;44.80;;;;;;5074126;28;19928;-43
2022/04/13 10:27:16;;;;;;;;;;;21.80;44.70;;;;;;5073657;28;20189;-44
2022/04/13 10:29:46;;;;;;;;;;;21.80;44.80;;;;;;5075112;28;20390;-46
2022/04/13 10:32:15;;;;;;;;;;;21.80;44.70;;;;;;5094571;28;19973;-44
2022/04/13 10:34:43;;;;;;;;;;;21.80;44.70;;;;;;5094403;28;19941;-44
2022/04/13 10:37:11;;;;;;;;;;;21.80;44.70;;;;;;5093249;28;19928;-43
2022/04/13 10:39:39;;;;;;;;;;;21.80;44.70;;;;;;5093998;28;19977;-49
2022/04/13 10:42:07;;;;;;;;;;;21.80;44.70;;;;;;5094040;28;19931;-44
2022/04/13 10:44:36;;;;;;;;;;;21.80;44.70;;;;;;5094287;28;19925;-44
2022/04/13 10:47:06;;;;;;;;;;;21.80;44.70;;;;;;5093665;28;19993;-44
2022/04/13 10:49:39;;;;;;;;;;;21.80;44.70;;;;;;5093881;28;19979;-45
2022/04/13 10:52:10;;;;;;;;;;;21.80;44.70;;;;;;5079447;28;19925;-44
2022/04/13 10:54:38;;;;;;;;;;;21.80;44.70;;;;;;5073933;28;19964;-44
2022/04/13 10:57:06;;;;;;;;;;;21.80;44.70;;;;;;5073626;28;19974;-46
2022/04/13 10:59:41;;;;;;;;;;;21.80;44.70;;;;;;5073657;28;20398;-44
2022/04/13 11:02:28;;;;;;;;;;;21.80;44.70;;;;;;5091807;28;19969;-47
2022/04/13 11:04:57;;;;;;;;;;;21.80;44.70;;;;;;5093656;28;19928;-46
2022/04/13 11:07:24;;;;;;;;;;;21.80;44.70;;;;;;5078142;28;19924;-43
2022/04/13 11:09:55;;;;;;;;;;;21.80;44.70;;;;;;5073395;28;19978;-44
2022/04/13 11:12:26;;;;;;;;;;;21.80;44.70;;;;;;5073535;28;19924;-45
2022/04/13 11:14:54;;;;;;;;;;;21.80;44.70;;;;;;5074318;28;19978;-44
2022/04/13 11:17:21;;;;;;;;;;;21.80;44.70;;;;;;5092971;28;19924;-44
2022/04/13 11:19:51;;;;;;;;;;;21.90;44.70;;;;;;5093623;28;19928;-44
2022/04/13 11:22:19;;;;;;;;;;;21.80;44.70;;;;;;5092238;28;19928;-43
2022/04/13 11:24:46;;;;;;;;;;;21.90;44.80;;;;;;5093917;28;20299;-45
2022/04/13 11:27:13;;;;;;;;;;;21.80;44.70;;;;;;5094382;28;19924;-46
2022/04/13 11:29:41;;;;;;;;;;;21.90;44.70;;;;;;5093441;28;20027;-51
2022/04/13 11:32:10;;;;;;;;;;;21.90;44.70;;;;;;5092867;28;19925;-47
2022/04/13 11:34:43;;;;;;;;;;;21.90;44.70;;;;;;5093748;28;19928;-45
2022/04/13 11:37:11;;;;;;;;;;;21.90;44.70;;;;;;5092574;28;20303;-46
2022/04/13 11:39:45;;;;;;;;;;;21.90;44.70;;;;;;5093701;28;19928;-46
2022/04/13 11:42:32;;;;;;;;;;;21.90;44.60;;;;;;5093367;28;19928;-44
2022/04/13 11:45:03;;;;;;;;;;;21.90;44.60;;;;;;5093397;28;19968;-46
2022/04/13 11:47:41;;;;;;;;;;;21.90;44.60;;;;;;5092466;28;19924;-45
2022/04/13 11:50:12;;;;;;;;;;;21.90;44.60;;;;;;5093549;28;20370;-44
2022/04/13 11:52:43;;;;;;;;;;;21.90;44.70;;;;;;5092216;28;19970;-48
2022/04/13 11:55:27;;;;;;;;;;;21.90;44.60;;;;;;5093586;28;19931;-46
2022/04/13 11:58:09;;;;;;;;;;;21.90;44.60;;;;;;5093566;28;19924;-44
2022/04/13 12:00:41;;;;;;;;;;;21.90;44.60;;;;;;5092214;28;19975;-45
2022/04/13 12:03:09;;;;;;;;;;;21.90;44.60;;;;;;5092972;28;19924;-50
2022/04/13 12:05:40;;;;;;;;;;;21.90;44.60;;;;;;5093073;28;19931;-49
2022/04/13 12:08:18;;;;;;;;;;;21.90;44.60;;;;;;5092250;28;19928;-46
2022/04/13 12:10:47;;;;;;;;;;;21.90;44.50;;;;;;5093368;28;20011;-45
2022/04/13 12:13:14;;;;;;;;;;;21.90;44.50;;;;;;5095207;28;19930;-48
2022/04/13 12:15:42;;;;;;;;;;;21.90;44.50;;;;;;5096199;28;19924;-44
2022/04/13 12:18:12;;;;;;;;;;;21.90;44.50;;;;;;5096606;28;19931;-45
2022/04/13 12:20:40;;;;;;;;;;;21.90;44.50;;;;;;5096864;28;19924;-44
2022/04/13 12:23:20;;;;;;;;;;;22.00;44.50;;;;;;5095328;28;19924;-51
2022/04/13 12:25:50;;;;;;;;;;;21.90;44.50;;;;;;5096493;28;19928;-44
2022/04/13 12:28:19;;;;;;;;;;;21.90;44.50;;;;;;5097080;28;19924;-51
2022/04/13 12:31:01;;;;;;;;;;;21.90;44.50;;;;;;5096703;28;20360;-44
2022/04/13 12:33:29;;;;;;;;;;;21.90;44.50;;;;;;5078331;28;19931;-44
2022/04/13 12:36:00;;;;;;;;;;;21.90;44.40;;;;;;5096576;28;19970;-44
2022/04/13 12:38:29;;;;;;;;;;;22.00;44.50;;;;;;5094971;28;19932;-44
2022/04/13 12:41:07;;;;;;;;;;;22.00;44.50;;;;;;5096342;28;19924;-43
2022/04/13 12:43:34;;;;;;;;;;;21.90;44.40;;;;;;5096570;28;19928;-44
2022/04/13 12:46:08;;;;;;;;;;;21.90;44.40;;;;;;5095368;28;19954;-44
2022/04/13 12:48:35;;;;;;;;;;;22.00;44.40;;;;;;5096020;28;19931;-44
2022/04/13 12:51:04;;;;;;;;;;;22.00;44.30;;;;;;5096518;28;19973;-43
2022/04/13 12:53:41;;;;;;;;;;;22.00;44.30;;;;;;5082639;28;19924;-44
2022/04/13 12:56:13;;;;;;;;;;;22.00;44.30;;;;;;5075727;28;19974;-43
2022/04/13 12:58:40;;;;;;;;;;;22.00;44.40;;;;;;5075724;28;19924;-44
2022/04/13 13:01:09;;;;;;;;;;;22.00;44.30;;;;;;5057428;28;19978;-43
2022/04/13 13:03:38;;;;;;;;;;;22.00;44.30;;;;;;5095877;28;19935;-45
2022/04/13 13:06:12;;;;;;;;;;;22.00;44.30;;;;;;5095674;28;19924;-44
2022/04/13 13:08:52;;;;;;;;;;;22.00;44.30;;;;;;5094686;28;20006;-49
2022/04/13 13:11:22;;;;;;;;;;;22.00;44.20;;;;;;5095833;28;20294;-45
2022/04/13 13:13:49;;;;;;;;;;;22.00;44.30;;;;;;5095529;28;19963;-50
2022/04/13 13:16:32;;;;;;;;;;;22.00;44.20;;;;;;5095032;28;19970;-47
2022/04/13 13:19:10;;;;;;;;;;;22.00;44.20;;;;;;5075238;28;19931;-51
2022/04/13 13:21:37;;;;;;;;;;;22.00;44.20;;;;;;5075003;28;19924;-50
2022/04/13 13:24:04;;;;;;;;;;;22.10;44.20;;;;;;5074432;28;19925;-44
2022/04/13 13:26:31;;;;;;;;;;;22.00;44.10;;;;;;5075081;28;19931;-44
2022/04/13 13:28:59;;;;;;;;;;;22.10;44.10;;;;;;5074997;28;19929;-46
2022/04/13 13:31:26;;;;;;;;;;;22.10;44.10;;;;;;5074556;28;20350;-49
2022/04/13 13:33:53;;;;;;;;;;;22.10;44.10;;;;;;5094978;28;20265;-47
2022/04/13 13:36:20;;;;;;;;;;;22.00;44.10;;;;;;5095495;28;19928;-43
2022/04/13 13:38:48;;;;;;;;;;;22.00;44.10;;;;;;5093760;28;19928;-47
2022/04/13 13:41:15;;;;;;;;;;;22.00;44.10;;;;;;5095250;28;19924;-46
2022/04/13 13:43:42;;;;;;;;;;;22.10;44.20;;;;;;5094951;28;19970;-43
2022/04/13 13:46:12;;;;;;;;;;;22.10;44.10;;;;;;5094927;28;19928;-43
2022/04/13 13:48:39;;;;;;;;;;;22.10;44.10;;;;;;5094243;28;19924;-49
2022/04/13 13:51:08;;;;;;;;;;;22.00;44.00;;;;;;5095316;28;19975;-47
2022/04/13 13:53:35;;;;;;;;;;;22.10;44.10;;;;;;5085342;28;20406;-47
2022/04/13 13:56:02;;;;;;;;;;;22.10;44.10;;;;;;5074911;28;20340;-43
2022/04/13 13:58:29;;;;;;;;;;;22.10;44.10;;;;;;5056806;28;19931;-43
2022/04/13 14:00:56;;;;;;;;;;;22.10;44.10;;;;;;5056704;28;19928;-49
2022/04/13 14:03:23;;;;;;;;;;;22.10;44.00;;;;;;5087320;28;19950;-45
2022/04/13 14:05:50;;;;;;;;;;;22.10;44.00;;;;;;5094670;28;20303;-47
2022/04/13 14:08:17;;;;;;;;;;;22.10;44.00;;;;;;5089885;28;19928;-44
2022/04/13 14:10:45;;;;;;;;;;;22.10;44.00;;;;;;5074502;28;19925;-46
2022/04/13 14:13:13;;;;;;;;;;;22.10;44.00;;;;;;5074201;28;19924;-46
2022/04/13 14:15:41;;;;;;;;;;;22.10;44.10;;;;;;5074161;28;19931;-49
2022/04/13 14:18:08;;;;;;;;;;;22.10;44.10;;;;;;5083630;28;19932;-44
2022/04/13 14:20:35;;;;;;;;;;;22.10;44.00;;;;;;5094610;28;19947;-44
2022/04/13 14:23:02;;;;;;;;;;;22.10;44.00;;;;;;5093179;28;19977;-43